createdAt,value
2019-03-08T00:01:24.421Z,6.40
2019-03-08T00:03:52.398Z,6.20
2019-03-08T00:06:20.453Z,6.47
2019-03-08T00:08:48.455Z,6.30
2019-03-08T00:11:16.469Z,6.60
2019-03-08T00:13:44.464Z,6.37
2019-03-08T00:16:12.423Z,6.27
2019-03-08T00:18:40.400Z,6.53
2019-03-08T00:21:08.453Z,7.00
2019-03-08T00:23:36.749Z,7.20
2019-03-08T00:26:04.744Z,6.60
2019-03-08T00:28:32.783Z,7.40
2019-03-08T00:31:00.817Z,6.60
2019-03-08T00:33:28.830Z,6.33
2019-03-08T00:35:56.823Z,6.27
2019-03-08T00:38:25.287Z,6.83
2019-03-08T00:40:53.270Z,6.60
2019-03-08T00:43:21.342Z,6.37
2019-03-08T00:45:49.411Z,6.50
2019-03-08T00:48:17.457Z,6.30
2019-03-08T00:50:45.445Z,6.77
2019-03-08T00:53:13.421Z,6.50
2019-03-08T00:55:41.498Z,6.30
2019-03-08T00:58:09.545Z,6.23
2019-03-08T01:00:37.543Z,6.20
2019-03-08T01:03:05.597Z,6.17
2019-03-08T01:05:33.598Z,7.03
2019-03-08T01:08:01.547Z,6.67
2019-03-08T01:10:29.712Z,6.70
2019-03-08T01:12:57.719Z,6.73
2019-03-08T01:15:25.745Z,6.20
2019-03-08T01:17:53.716Z,6.70
2019-03-08T01:20:21.701Z,6.30
2019-03-08T01:22:49.756Z,6.57
2019-03-08T01:25:18.245Z,6.00
2019-03-08T01:27:56.449Z,6.10
2019-03-08T01:30:24.438Z,6.37
2019-03-08T01:32:52.432Z,6.17
2019-03-08T01:35:20.444Z,6.23
2019-03-08T01:37:48.417Z,6.20
2019-03-08T01:40:16.397Z,6.10
2019-03-08T01:42:44.455Z,6.30
2019-03-08T01:45:13.082Z,6.27
2019-03-08T01:47:41.117Z,6.67
2019-03-08T01:50:10.596Z,6.37
2019-03-08T01:52:38.598Z,5.97
2019-03-08T01:55:06.573Z,5.80
2019-03-08T01:57:34.662Z,6.10
2019-03-08T02:00:02.605Z,6.30
2019-03-08T02:02:30.618Z,6.80
2019-03-08T02:04:58.652Z,7.00
2019-03-08T02:07:26.632Z,6.43
2019-03-08T02:09:54.668Z,6.10
2019-03-08T02:12:22.659Z,6.80
2019-03-08T02:14:50.635Z,6.33
2019-03-08T02:17:18.682Z,6.37
2019-03-08T02:19:46.698Z,6.40
2019-03-08T02:22:14.757Z,6.30
2019-03-08T02:24:42.905Z,6.73
2019-03-08T02:27:10.891Z,6.57
2019-03-08T02:29:39.209Z,6.50
2019-03-08T02:32:07.378Z,6.80
2019-03-08T02:34:35.405Z,7.10
2019-03-08T02:37:03.389Z,6.70
2019-03-08T02:39:31.559Z,6.37
2019-03-08T02:41:59.610Z,6.20
2019-03-08T02:44:27.616Z,6.60
2019-03-08T02:46:55.656Z,6.60
2019-03-08T02:49:23.632Z,6.60
2019-03-08T02:51:51.704Z,6.50
2019-03-08T02:54:19.790Z,7.00
2019-03-08T02:56:47.865Z,6.83
2019-03-08T02:59:15.930Z,6.60
2019-03-08T03:01:44.005Z,6.67
2019-03-08T03:04:12.000Z,6.80
2019-03-08T03:06:40.033Z,7.83
2019-03-08T03:09:08.102Z,7.57
2019-03-08T03:11:36.180Z,7.10
2019-03-08T03:14:04.252Z,7.43
2019-03-08T03:16:32.303Z,7.90
2019-03-08T03:19:00.282Z,6.70
2019-03-08T03:21:28.383Z,7.30
2019-03-08T03:23:56.422Z,6.80
2019-03-08T03:26:24.391Z,6.87
2019-03-08T03:28:52.386Z,6.70
2019-03-08T03:31:20.465Z,6.80
2019-03-08T03:33:48.835Z,7.37
2019-03-08T03:36:16.885Z,6.57
2019-03-08T03:38:44.938Z,6.87
2019-03-08T03:41:13.051Z,7.97
2019-03-08T03:43:41.096Z,7.00
2019-03-08T03:46:09.171Z,6.30
2019-03-08T03:48:37.227Z,6.70
2019-03-08T03:51:05.253Z,7.07
2019-03-08T03:53:33.303Z,7.20
2019-03-08T03:56:01.353Z,7.50
2019-03-08T03:58:29.436Z,7.17
2019-03-08T04:00:57.395Z,7.20
2019-03-08T04:03:25.415Z,7.23
2019-03-08T04:05:53.452Z,7.10
2019-03-08T04:08:21.509Z,6.80
2019-03-08T04:10:49.573Z,7.67
2019-03-08T04:13:17.636Z,7.17
2019-03-08T04:15:45.632Z,7.10
2019-03-08T04:18:13.751Z,7.70
2019-03-08T04:20:41.777Z,7.80
2019-03-08T04:23:09.849Z,7.27
2019-03-08T04:25:37.891Z,8.30
2019-03-08T04:28:06.002Z,7.83
2019-03-08T04:30:34.062Z,7.00
2019-03-08T04:33:02.041Z,7.43
2019-03-08T04:35:30.365Z,7.10
2019-03-08T04:37:58.363Z,7.40
2019-03-08T04:40:26.303Z,7.23
2019-03-08T04:42:55.530Z,7.17
2019-03-08T04:45:23.582Z,7.20
2019-03-08T04:47:51.581Z,7.63
2019-03-08T04:50:19.639Z,7.53
2019-03-08T04:52:47.711Z,7.20
2019-03-08T04:55:17.016Z,7.70
2019-03-08T04:57:45.480Z,8.40
2019-03-08T05:00:13.648Z,7.60
2019-03-08T05:02:41.641Z,8.20
2019-03-08T05:05:09.719Z,7.60
2019-03-08T05:07:37.794Z,7.60
2019-03-08T05:10:05.852Z,7.37
2019-03-08T05:12:33.802Z,7.23
2019-03-08T05:15:01.805Z,6.70
2019-03-08T05:17:29.921Z,7.27
2019-03-08T05:19:57.942Z,7.97
2019-03-08T05:22:26.000Z,7.43
2019-03-08T05:24:54.018Z,7.47
2019-03-08T05:27:22.069Z,7.27
2019-03-08T05:29:50.329Z,7.40
2019-03-08T05:32:19.352Z,7.73
2019-03-08T05:34:47.411Z,7.80
2019-03-08T05:37:15.462Z,7.63
2019-03-08T05:39:43.528Z,7.60
2019-03-08T05:42:11.512Z,7.87
2019-03-08T05:44:39.654Z,7.17
2019-03-08T05:47:07.661Z,6.70
2019-03-08T05:49:35.703Z,7.43
2019-03-08T05:52:03.684Z,7.80
2019-03-08T05:54:31.764Z,8.50
2019-03-08T05:56:59.829Z,7.67
2019-03-08T05:59:27.907Z,8.40
2019-03-08T06:01:56.150Z,8.17
2019-03-08T06:04:24.195Z,8.40
2019-03-08T06:06:52.188Z,8.63
2019-03-08T06:09:20.227Z,7.97
2019-03-08T06:11:48.237Z,7.80
2019-03-08T06:14:16.243Z,8.40
2019-03-08T06:16:44.280Z,7.63
2019-03-08T06:19:12.268Z,8.50
2019-03-08T06:21:40.319Z,8.93
2019-03-08T06:24:08.323Z,8.50
2019-03-08T06:26:36.363Z,8.03
2019-03-08T06:29:04.358Z,7.37
2019-03-08T06:31:32.402Z,7.40
2019-03-08T06:34:00.528Z,6.67
2019-03-08T06:36:28.558Z,6.97
2019-03-08T06:38:56.513Z,6.80
2019-03-08T06:41:24.534Z,6.57
2019-03-08T06:43:52.550Z,7.80
2019-03-08T06:46:20.523Z,6.87
2019-03-08T06:48:48.529Z,7.53
2019-03-08T06:51:16.552Z,6.80
2019-03-08T06:53:44.526Z,7.20
2019-03-08T06:56:12.534Z,7.03
2019-03-08T06:58:49.167Z,6.90
2019-03-08T07:01:24.224Z,6.80
2019-03-08T07:03:52.204Z,6.43
2019-03-08T07:06:20.240Z,7.17
2019-03-08T07:08:48.227Z,7.40
2019-03-08T07:11:16.202Z,7.10
2019-03-08T07:13:44.254Z,7.20
2019-03-08T07:16:13.295Z,7.37
2019-03-08T07:18:41.936Z,7.70
2019-03-08T07:21:15.742Z,7.20
2019-03-08T07:24:05.795Z,7.33
2019-03-08T07:27:11.318Z,7.50
2019-03-08T07:29:56.176Z,7.43
2019-03-08T07:32:30.865Z,7.40
2019-03-08T07:35:08.902Z,7.80
2019-03-08T07:37:55.996Z,8.00
2019-03-08T07:40:41.932Z,9.10
2019-03-08T07:43:25.329Z,8.50
2019-03-08T07:46:03.785Z,7.40
2019-03-08T07:48:49.736Z,8.43
2019-03-08T07:51:41.869Z,7.33
2019-03-08T07:54:29.087Z,7.60
2019-03-08T07:57:25.318Z,7.00
2019-03-08T08:00:11.110Z,8.57
2019-03-08T08:03:03.587Z,8.37
2019-03-08T08:05:46.665Z,7.80
2019-03-08T08:08:26.943Z,7.80
2019-03-08T08:11:13.031Z,7.97
2019-03-08T08:13:56.010Z,8.00
2019-03-08T08:16:51.842Z,8.17
2019-03-08T08:19:37.659Z,7.30
2019-03-08T08:22:23.391Z,7.57
2019-03-08T08:24:58.796Z,7.73
2019-03-08T08:27:33.344Z,7.17
2019-03-08T08:30:23.335Z,7.20
2019-03-08T08:33:16.799Z,7.63
2019-03-08T08:36:03.259Z,7.37
2019-03-08T08:38:56.318Z,7.80
2019-03-08T08:41:40.361Z,7.10
2019-03-08T08:44:26.710Z,7.10
2019-03-08T08:47:16.728Z,6.97
2019-03-08T08:49:58.745Z,7.00
2019-03-08T08:52:53.738Z,7.20
2019-03-08T08:55:39.692Z,9.20
2019-03-08T08:58:16.013Z,7.30
2019-03-08T09:01:12.369Z,7.67
2019-03-08T09:03:58.082Z,7.47
2019-03-08T09:06:45.091Z,6.83
2019-03-08T09:09:28.788Z,7.27
2019-03-08T09:12:21.938Z,7.20
2019-03-08T09:15:02.394Z,7.10
2019-03-08T09:17:52.515Z,7.13
2019-03-08T09:20:33.277Z,6.77
2019-03-08T09:23:17.919Z,6.80
2019-03-08T09:26:06.486Z,6.60
2019-03-08T09:28:59.614Z,8.50
2019-03-08T09:31:43.098Z,7.33
2019-03-08T09:34:32.871Z,6.50
2019-03-08T09:37:13.901Z,6.80
2019-03-08T09:40:03.679Z,6.50
2019-03-08T09:42:49.293Z,6.47
2019-03-08T09:45:39.399Z,6.77
2019-03-08T09:48:22.032Z,6.50
2019-03-08T09:50:56.705Z,6.17
2019-03-08T09:53:42.493Z,6.60
2019-03-08T09:56:22.064Z,6.43
2019-03-08T09:59:21.221Z,5.80
2019-03-08T10:02:04.989Z,6.80
2019-03-08T10:04:54.747Z,6.37
2019-03-08T10:07:44.860Z,6.40
2019-03-08T10:10:25.972Z,6.10
2019-03-08T10:13:15.850Z,6.60
2019-03-08T10:15:51.557Z,7.10
2019-03-08T10:18:44.602Z,6.80
2019-03-08T10:21:31.628Z,6.23
2019-03-08T10:24:19.653Z,6.50
2019-03-08T10:27:10.780Z,5.90
2019-03-08T10:29:50.215Z,6.33
2019-03-08T10:32:43.222Z,5.90
2019-03-08T10:35:40.878Z,6.73
2019-03-08T10:38:24.353Z,5.90
2019-03-08T10:41:11.813Z,6.60
2019-03-08T10:44:08.496Z,6.37
2019-03-08T10:46:40.644Z,6.67
2019-03-08T10:49:31.827Z,6.03
2019-03-08T10:52:17.358Z,6.77
2019-03-08T10:55:16.935Z,7.00
2019-03-08T10:57:56.941Z,6.80
2019-03-08T11:00:37.182Z,6.90
2019-03-08T11:03:11.581Z,6.90
2019-03-08T11:05:57.512Z,6.80
2019-03-08T11:09:00.312Z,7.60
2019-03-08T11:11:57.367Z,7.23
2019-03-08T11:14:36.726Z,6.63
2019-03-08T11:17:27.560Z,7.30
2019-03-08T11:20:33.436Z,7.10
2019-03-08T11:23:20.609Z,6.97
2019-03-08T11:26:06.674Z,6.63
2019-03-08T11:28:56.420Z,7.30
2019-03-08T11:31:47.079Z,7.37
2019-03-08T11:34:33.642Z,7.07
2019-03-08T11:37:08.398Z,7.87
2019-03-08T11:39:58.530Z,7.27
2019-03-08T11:42:45.903Z,7.23
2019-03-08T11:45:24.060Z,7.17
2019-03-08T11:48:09.985Z,7.47
2019-03-08T11:51:00.249Z,7.20
2019-03-08T11:53:55.884Z,7.90
2019-03-08T11:56:36.132Z,7.50
2019-03-08T11:59:29.112Z,7.43
2019-03-08T12:02:24.553Z,7.20
2019-03-08T12:05:10.521Z,7.23
2019-03-08T12:07:56.120Z,6.93
2019-03-08T12:10:49.376Z,6.87
2019-03-08T12:13:35.504Z,6.63
2019-03-08T12:16:15.631Z,8.40
2019-03-08T12:19:02.707Z,7.60
2019-03-08T12:21:49.160Z,6.93
2019-03-08T12:24:40.620Z,7.07
2019-03-08T12:27:18.490Z,6.87
2019-03-08T12:29:54.534Z,6.73
2019-03-08T12:32:41.628Z,7.30
2019-03-08T12:35:40.811Z,6.67
2019-03-08T12:38:32.988Z,7.30
2019-03-08T12:41:26.191Z,7.90
2019-03-08T12:44:13.741Z,6.63
2019-03-08T12:47:08.403Z,7.07
2019-03-08T12:49:42.420Z,7.03
2019-03-08T12:52:38.670Z,7.87
2019-03-08T12:55:41.463Z,7.70
2019-03-08T12:58:43.657Z,7.03
2019-03-08T13:01:29.666Z,7.97
2019-03-08T13:04:20.367Z,7.63
2019-03-08T13:07:10.245Z,7.90
2019-03-08T13:09:50.366Z,6.80
2019-03-08T13:12:18.528Z,7.30
2019-03-08T13:14:46.519Z,7.27
2019-03-08T13:17:14.726Z,7.20
2019-03-08T13:19:42.907Z,7.23
2019-03-08T13:22:11.001Z,7.23
2019-03-08T13:24:39.033Z,8.40
2019-03-08T13:27:07.093Z,7.40
2019-03-08T13:29:35.228Z,7.50
2019-03-08T13:32:03.265Z,7.37
2019-03-08T13:34:31.461Z,7.10
2019-03-08T13:36:59.530Z,7.03
2019-03-08T13:39:27.767Z,7.40
2019-03-08T13:41:55.918Z,6.90
2019-03-08T13:44:24.924Z,7.27
2019-03-08T13:46:52.974Z,7.73
2019-03-08T13:49:21.164Z,7.50
2019-03-08T13:51:49.158Z,6.87
2019-03-08T13:54:17.253Z,6.57
2019-03-08T13:56:45.297Z,7.00
2019-03-08T13:59:13.384Z,6.83
2019-03-08T14:01:41.425Z,6.60
2019-03-08T14:04:10.300Z,6.50
2019-03-08T14:06:38.294Z,6.80
2019-03-08T14:09:07.446Z,6.23
2019-03-08T14:11:35.507Z,6.60
2019-03-08T14:14:03.542Z,6.30
2019-03-08T14:16:31.768Z,7.00
2019-03-08T14:19:00.036Z,5.83
2019-03-08T14:21:28.050Z,7.27
2019-03-08T14:23:56.107Z,6.10
2019-03-08T14:26:24.196Z,6.60
2019-03-08T14:28:52.238Z,6.20
2019-03-08T14:31:32.081Z,6.20
2019-03-08T14:34:03.302Z,6.43
2019-03-08T14:36:32.411Z,7.50
2019-03-08T14:39:04.149Z,6.30
2019-03-08T14:41:52.949Z,6.77
2019-03-08T14:44:39.969Z,6.70
2019-03-08T14:47:13.360Z,6.30
2019-03-08T14:49:41.797Z,6.47
2019-03-08T14:52:09.767Z,6.30
2019-03-08T14:54:38.335Z,6.07
2019-03-08T14:57:09.283Z,6.07
2019-03-08T14:59:35.991Z,6.20
2019-03-08T15:02:04.108Z,6.93
2019-03-08T15:04:33.211Z,6.90
2019-03-08T15:07:04.682Z,7.20
2019-03-08T15:09:31.456Z,6.57
2019-03-08T15:11:59.726Z,5.97
2019-03-08T15:14:30.149Z,6.93
2019-03-08T15:16:58.371Z,5.87
2019-03-08T15:19:26.558Z,6.40
2019-03-08T15:21:54.685Z,6.80
2019-03-08T15:24:23.206Z,6.97
2019-03-08T15:26:51.241Z,6.57
2019-03-08T15:29:19.299Z,6.00
2019-03-08T15:31:47.347Z,6.00
2019-03-08T15:34:21.497Z,6.63
2019-03-08T15:36:45.010Z,6.73
2019-03-08T15:39:13.037Z,6.80
2019-03-08T15:41:41.038Z,5.93
2019-03-08T15:44:09.045Z,6.57
2019-03-08T15:46:37.239Z,6.30
2019-03-08T15:49:05.427Z,6.03
2019-03-08T15:51:33.455Z,6.80
2019-03-08T15:54:01.543Z,6.43
2019-03-08T15:56:29.542Z,6.57
2019-03-08T15:58:57.736Z,6.27
2019-03-08T16:01:25.860Z,6.10
2019-03-08T16:03:53.920Z,6.27
2019-03-08T16:06:21.888Z,6.67
2019-03-08T16:08:49.911Z,6.63
2019-03-08T16:11:17.957Z,6.73
2019-03-08T16:13:45.909Z,6.53
2019-03-08T16:16:13.896Z,6.70
2019-03-08T16:18:44.086Z,6.60
2019-03-08T16:21:13.127Z,6.47
2019-03-08T16:23:41.419Z,6.97
2019-03-08T16:26:09.442Z,6.67
2019-03-08T16:28:37.432Z,6.67
2019-03-08T16:31:16.704Z,6.57
2019-03-08T16:33:48.421Z,6.67
2019-03-08T16:36:34.168Z,6.40
2019-03-08T16:39:12.804Z,7.00
2019-03-08T16:41:51.574Z,6.73
2019-03-08T16:44:38.583Z,6.57
2019-03-08T16:47:14.890Z,7.00
2019-03-08T16:49:57.983Z,6.97
2019-03-08T16:52:50.870Z,7.10
2019-03-08T16:55:37.091Z,8.10
2019-03-08T16:58:22.843Z,7.20
2019-03-08T17:01:21.927Z,7.27
2019-03-08T17:04:07.154Z,6.77
2019-03-08T17:07:00.029Z,8.40
2019-03-08T17:09:52.936Z,7.60
2019-03-08T17:12:37.551Z,8.20
2019-03-08T17:15:27.727Z,7.47
2019-03-08T17:18:06.771Z,6.77
2019-03-08T17:20:52.303Z,7.17
2019-03-08T17:23:41.819Z,7.20
2019-03-08T17:26:27.378Z,7.27
2019-03-08T17:29:44.617Z,7.63
2019-03-08T17:32:39.172Z,7.00
2019-03-08T17:35:48.844Z,6.60
2019-03-08T17:38:30.690Z,7.30
2019-03-08T17:41:12.651Z,7.10
2019-03-08T17:43:47.791Z,6.40
2019-03-08T17:46:46.264Z,6.70
2019-03-08T17:49:43.917Z,6.90
2019-03-08T17:52:32.885Z,7.20
2019-03-08T17:55:23.736Z,7.40
2019-03-08T17:58:12.187Z,8.43
2019-03-08T18:01:03.827Z,7.37
2019-03-08T18:03:58.366Z,8.23
2019-03-08T18:06:40.109Z,6.53
2019-03-08T18:09:32.154Z,7.33
2019-03-08T18:12:29.019Z,10.70
2019-03-08T18:15:14.879Z,10.30
2019-03-08T18:18:06.234Z,10.47
2019-03-08T18:20:59.772Z,9.97
2019-03-08T18:23:36.762Z,6.80
2019-03-08T18:26:23.347Z,6.20
2019-03-08T18:29:10.861Z,6.40
2019-03-08T18:32:01.450Z,6.40
2019-03-08T18:34:49.370Z,6.10
2019-03-08T18:37:40.572Z,6.90
2019-03-08T18:40:30.734Z,7.47
2019-03-08T18:43:18.758Z,6.30
2019-03-08T18:46:15.415Z,6.63
2019-03-08T18:48:57.942Z,6.63
2019-03-08T18:51:37.196Z,6.07
2019-03-08T18:54:27.277Z,6.77
2019-03-08T18:57:14.459Z,6.93
2019-03-08T19:00:00.467Z,7.03
2019-03-08T19:02:54.433Z,7.00
2019-03-08T19:05:40.133Z,6.00
2019-03-08T19:08:26.716Z,7.13
2019-03-08T19:11:16.922Z,6.80
2019-03-08T19:14:21.848Z,6.80
2019-03-08T19:17:21.318Z,7.00
2019-03-08T19:20:24.050Z,6.97
2019-03-08T19:23:14.903Z,6.67
2019-03-08T19:26:13.859Z,6.10
2019-03-08T19:29:04.090Z,7.53
2019-03-08T19:31:54.139Z,6.87
2019-03-08T19:34:39.642Z,7.00
2019-03-08T19:37:36.159Z,6.53
2019-03-08T19:40:27.869Z,7.20
2019-03-08T19:43:04.637Z,6.70
2019-03-08T19:45:43.498Z,6.63
2019-03-08T19:48:29.209Z,7.17
2019-03-08T19:51:14.834Z,6.50
2019-03-08T19:54:00.694Z,6.70
2019-03-08T19:56:35.331Z,6.30
2019-03-08T19:59:27.605Z,6.50
2019-03-08T20:02:14.209Z,5.87
2019-03-08T20:05:07.336Z,6.17
2019-03-08T20:08:00.381Z,6.33
2019-03-08T20:10:53.737Z,5.70
2019-03-08T20:13:35.923Z,7.00
2019-03-08T20:16:27.509Z,6.00
2019-03-08T20:19:08.791Z,6.07
2019-03-08T20:21:48.226Z,7.73
2019-03-08T20:24:38.119Z,6.33
2019-03-08T20:27:24.075Z,8.00
2019-03-08T20:30:26.165Z,7.20
2019-03-08T20:33:25.233Z,6.27
2019-03-08T20:36:15.053Z,6.30
2019-03-08T20:38:57.984Z,6.80
2019-03-08T20:41:49.461Z,6.57
2019-03-08T20:44:39.513Z,6.83
2019-03-08T20:47:16.942Z,6.73
2019-03-08T20:49:44.941Z,6.70
2019-03-08T20:52:12.997Z,7.20
2019-03-08T20:54:40.957Z,6.80
2019-03-08T20:57:09.081Z,6.57
2019-03-08T20:59:37.091Z,7.07
2019-03-08T21:02:05.083Z,6.40
2019-03-08T21:04:33.035Z,6.83
2019-03-08T21:07:01.440Z,6.50
2019-03-08T21:09:29.513Z,6.43
2019-03-08T21:11:57.552Z,6.40
2019-03-08T21:14:25.568Z,6.60
2019-03-08T21:16:53.613Z,6.57
2019-03-08T21:19:21.603Z,7.30
2019-03-08T21:21:49.840Z,7.30
2019-03-08T21:24:17.832Z,8.40
2019-03-08T21:26:45.898Z,9.00
2019-03-08T21:29:13.862Z,7.10
2019-03-08T21:31:41.868Z,6.83
2019-03-08T21:34:09.925Z,7.60
2019-03-08T21:36:38.085Z,6.83
2019-03-08T21:39:07.073Z,6.63
2019-03-08T21:41:35.069Z,6.37
2019-03-08T21:44:03.106Z,7.17
2019-03-08T21:46:31.102Z,7.37
2019-03-08T21:48:59.142Z,7.17
2019-03-08T21:51:27.124Z,7.03
2019-03-08T21:53:55.181Z,7.40
2019-03-08T21:56:23.188Z,8.03
2019-03-08T21:58:51.235Z,7.40
2019-03-08T22:01:19.200Z,7.50
2019-03-08T22:03:53.305Z,7.00
2019-03-08T22:06:21.270Z,7.10
2019-03-08T22:09:26.689Z,7.00
2019-03-08T22:11:54.709Z,7.57
2019-03-08T22:14:22.789Z,7.90
2019-03-08T22:16:50.733Z,7.40
2019-03-08T22:19:18.856Z,7.10
2019-03-08T22:21:46.897Z,7.50
2019-03-08T22:24:15.153Z,7.80
2019-03-08T22:26:43.120Z,7.73
2019-03-08T22:29:11.122Z,7.60
2019-03-08T22:31:39.157Z,8.53
2019-03-08T22:34:07.146Z,7.73
2019-03-08T22:36:35.524Z,8.63
2019-03-08T22:39:04.813Z,7.67
2019-03-08T22:41:32.839Z,7.90
2019-03-08T22:44:00.810Z,7.73
2019-03-08T22:46:28.711Z,7.47
2019-03-08T22:48:56.714Z,7.70
2019-03-08T22:51:24.962Z,8.17
2019-03-08T22:53:53.304Z,7.37
2019-03-08T22:56:21.352Z,7.40
2019-03-08T22:58:49.401Z,7.23
2019-03-08T23:01:19.686Z,8.10
2019-03-08T23:03:47.685Z,8.00
2019-03-08T23:06:15.856Z,8.20
2019-03-08T23:08:43.829Z,7.60
2019-03-08T23:11:11.826Z,7.77
2019-03-08T23:13:40.776Z,7.27
2019-03-08T23:16:08.763Z,7.50
2019-03-08T23:18:36.832Z,7.53
2019-03-08T23:21:04.829Z,7.70
2019-03-08T23:23:32.854Z,7.60
2019-03-08T23:26:00.849Z,7.10
2019-03-08T23:28:42.425Z,7.33
2019-03-08T23:31:16.609Z,7.33
2019-03-08T23:33:44.629Z,7.40
2019-03-08T23:36:12.670Z,7.30
2019-03-08T23:38:40.680Z,8.20
2019-03-08T23:41:08.757Z,7.60
2019-03-08T23:43:37.021Z,7.50
2019-03-08T23:46:05.064Z,7.27
2019-03-08T23:48:33.359Z,7.23
2019-03-08T23:51:01.414Z,6.97
2019-03-08T23:53:29.403Z,8.00
2019-03-08T23:55:57.483Z,8.57
2019-03-08T23:58:25.555Z,8.00
